sensor_id;sensor_type;location;lat;lon;timestamp;P1;durP1;ratioP1;P2;durP2;ratioP2
23812;SDS011;12087;45.190;5.688;2023-06-10T00:01:47;7.10;;;5.50;;
23812;SDS011;12087;45.190;5.688;2023-06-10T00:07:09;10.45;;;5.80;;
23812;SDS011;12087;45.190;5.688;2023-06-10T00:12:33;6.82;;;5.80;;
23812;SDS011;12087;45.190;5.688;2023-06-10T00:17:58;6.18;;;5.13;;
23812;SDS011;12087;45.190;5.688;2023-06-10T00:23:21;8.70;;;6.25;;
23812;SDS011;12087;45.190;5.688;2023-06-10T00:28:46;7.75;;;5.25;;
23812;SDS011;12087;45.190;5.688;2023-06-10T00:34:08;8.85;;;6.10;;
23812;SDS011;12087;45.190;5.688;2023-06-10T00:39:31;6.00;;;5.38;;
23812;SDS011;12087;45.190;5.688;2023-06-10T00:44:55;8.73;;;6.05;;
23812;SDS011;12087;45.190;5.688;2023-06-10T00:50:17;7.05;;;5.82;;
23812;SDS011;12087;45.190;5.688;2023-06-10T00:55:40;8.38;;;6.45;;
23812;SDS011;12087;45.190;5.688;2023-06-10T01:01:04;7.00;;;6.22;;
23812;SDS011;12087;45.190;5.688;2023-06-10T01:06:28;7.63;;;6.00;;
23812;SDS011;12087;45.190;5.688;2023-06-10T01:12:01;9.43;;;5.38;;
23812;SDS011;12087;45.190;5.688;2023-06-10T01:17:32;6.43;;;5.75;;
23812;SDS011;12087;45.190;5.688;2023-06-10T01:22:58;6.55;;;4.57;;
23812;SDS011;12087;45.190;5.688;2023-06-10T01:28:21;11.13;;;4.80;;
23812;SDS011;12087;45.190;5.688;2023-06-10T01:33:51;8.53;;;5.07;;
23812;SDS011;12087;45.190;5.688;2023-06-10T01:39:16;10.15;;;4.82;;
23812;SDS011;12087;45.190;5.688;2023-06-10T01:44:41;7.97;;;4.78;;
23812;SDS011;12087;45.190;5.688;2023-06-10T01:50:04;8.98;;;4.88;;
23812;SDS011;12087;45.190;5.688;2023-06-10T01:55:28;11.88;;;5.65;;
23812;SDS011;12087;45.190;5.688;2023-06-10T02:00:51;8.13;;;5.65;;
23812;SDS011;12087;45.190;5.688;2023-06-10T02:06:13;6.88;;;5.43;;
23812;SDS011;12087;45.190;5.688;2023-06-10T02:11:36;10.77;;;5.80;;
23812;SDS011;12087;45.190;5.688;2023-06-10T02:16:59;12.32;;;5.75;;
23812;SDS011;12087;45.190;5.688;2023-06-10T02:22:21;9.93;;;6.88;;
23812;SDS011;12087;45.190;5.688;2023-06-10T02:27:45;8.30;;;6.32;;
23812;SDS011;12087;45.190;5.688;2023-06-10T02:33:08;11.45;;;6.80;;
23812;SDS011;12087;45.190;5.688;2023-06-10T02:38:31;10.50;;;7.63;;
23812;SDS011;12087;45.190;5.688;2023-06-10T02:43:54;10.02;;;6.55;;
23812;SDS011;12087;45.190;5.688;2023-06-10T02:49:16;9.23;;;7.55;;
23812;SDS011;12087;45.190;5.688;2023-06-10T02:54:39;10.38;;;7.72;;
23812;SDS011;12087;45.190;5.688;2023-06-10T03:00:02;10.00;;;7.75;;
23812;SDS011;12087;45.190;5.688;2023-06-10T03:05:29;10.35;;;7.50;;
23812;SDS011;12087;45.190;5.688;2023-06-10T03:10:52;11.10;;;7.18;;
23812;SDS011;12087;45.190;5.688;2023-06-10T03:16:15;10.90;;;6.70;;
23812;SDS011;12087;45.190;5.688;2023-06-10T03:21:37;11.30;;;6.93;;
23812;SDS011;12087;45.190;5.688;2023-06-10T03:27:01;9.75;;;7.18;;
23812;SDS011;12087;45.190;5.688;2023-06-10T03:32:26;7.00;;;6.18;;
23812;SDS011;12087;45.190;5.688;2023-06-10T03:37:49;9.07;;;6.32;;
23812;SDS011;12087;45.190;5.688;2023-06-10T03:43:11;7.10;;;6.32;;
23812;SDS011;12087;45.190;5.688;2023-06-10T03:48:34;9.48;;;6.05;;
23812;SDS011;12087;45.190;5.688;2023-06-10T03:53:57;8.50;;;5.97;;
23812;SDS011;12087;45.190;5.688;2023-06-10T03:59:19;8.10;;;6.05;;
23812;SDS011;12087;45.190;5.688;2023-06-10T04:04:43;6.38;;;5.28;;
23812;SDS011;12087;45.190;5.688;2023-06-10T04:10:06;9.20;;;6.47;;
23812;SDS011;12087;45.190;5.688;2023-06-10T04:15:29;7.20;;;6.47;;
23812;SDS011;12087;45.190;5.688;2023-06-10T04:20:55;11.25;;;6.85;;
23812;SDS011;12087;45.190;5.688;2023-06-10T04:26:17;11.68;;;7.55;;
23812;SDS011;12087;45.190;5.688;2023-06-10T04:31:39;8.55;;;7.50;;
23812;SDS011;12087;45.190;5.688;2023-06-10T04:37:03;8.18;;;6.47;;
23812;SDS011;12087;45.190;5.688;2023-06-10T04:42:26;9.63;;;6.90;;
23812;SDS011;12087;45.190;5.688;2023-06-10T04:47:48;7.00;;;5.78;;
23812;SDS011;12087;45.190;5.688;2023-06-10T04:53:11;7.88;;;5.68;;
23812;SDS011;12087;45.190;5.688;2023-06-10T04:58:34;7.90;;;6.53;;
23812;SDS011;12087;45.190;5.688;2023-06-10T05:03:56;7.07;;;5.75;;
23812;SDS011;12087;45.190;5.688;2023-06-10T05:09:20;7.05;;;5.68;;
23812;SDS011;12087;45.190;5.688;2023-06-10T05:14:42;6.32;;;5.50;;
23812;SDS011;12087;45.190;5.688;2023-06-10T05:20:05;5.68;;;5.00;;
23812;SDS011;12087;45.190;5.688;2023-06-10T05:25:29;9.65;;;6.22;;
23812;SDS011;12087;45.190;5.688;2023-06-10T05:30:52;9.07;;;5.40;;
23812;SDS011;12087;45.190;5.688;2023-06-10T05:36:14;7.85;;;5.00;;
23812;SDS011;12087;45.190;5.688;2023-06-10T05:41:38;8.52;;;5.30;;
23812;SDS011;12087;45.190;5.688;2023-06-10T05:47:00;7.25;;;5.40;;
23812;SDS011;12087;45.190;5.688;2023-06-10T05:52:23;9.10;;;5.78;;
23812;SDS011;12087;45.190;5.688;2023-06-10T05:57:46;7.65;;;5.55;;
23812;SDS011;12087;45.190;5.688;2023-06-10T06:03:08;6.72;;;5.72;;
23812;SDS011;12087;45.190;5.688;2023-06-10T06:08:31;12.90;;;5.82;;
23812;SDS011;12087;45.190;5.688;2023-06-10T06:13:55;7.97;;;5.35;;
23812;SDS011;12087;45.190;5.688;2023-06-10T06:19:17;7.45;;;5.60;;
23812;SDS011;12087;45.190;5.688;2023-06-10T06:24:40;7.85;;;5.95;;
23812;SDS011;12087;45.190;5.688;2023-06-10T06:30:04;7.80;;;5.80;;
23812;SDS011;12087;45.190;5.688;2023-06-10T06:35:27;10.43;;;5.28;;
23812;SDS011;12087;45.190;5.688;2023-06-10T06:40:51;8.18;;;6.25;;
23812;SDS011;12087;45.190;5.688;2023-06-10T06:46:15;9.30;;;5.93;;
23812;SDS011;12087;45.190;5.688;2023-06-10T06:57:55;7.32;;;5.40;;
23812;SDS011;12087;45.190;5.688;2023-06-10T07:03:20;8.32;;;5.60;;
23812;SDS011;12087;45.190;5.688;2023-06-10T07:08:42;7.93;;;6.50;;
23812;SDS011;12087;45.190;5.688;2023-06-10T07:14:04;7.55;;;5.95;;
23812;SDS011;12087;45.190;5.688;2023-06-10T07:19:28;11.48;;;6.75;;
23812;SDS011;12087;45.190;5.688;2023-06-10T07:24:50;12.50;;;6.88;;
23812;SDS011;12087;45.190;5.688;2023-06-10T07:30:15;10.65;;;7.03;;
23812;SDS011;12087;45.190;5.688;2023-06-10T07:35:38;8.68;;;7.78;;
23812;SDS011;12087;45.190;5.688;2023-06-10T07:41:03;10.25;;;7.35;;
23812;SDS011;12087;45.190;5.688;2023-06-10T07:46:25;11.32;;;8.63;;
23812;SDS011;12087;45.190;5.688;2023-06-10T07:51:49;13.50;;;8.20;;
23812;SDS011;12087;45.190;5.688;2023-06-10T07:57:12;9.70;;;6.55;;
23812;SDS011;12087;45.190;5.688;2023-06-10T08:02:35;8.55;;;7.20;;
23812;SDS011;12087;45.190;5.688;2023-06-10T08:08:00;11.13;;;7.80;;
23812;SDS011;12087;45.190;5.688;2023-06-10T08:13:23;7.65;;;5.80;;
23812;SDS011;12087;45.190;5.688;2023-06-10T08:18:45;6.55;;;5.47;;
23812;SDS011;12087;45.190;5.688;2023-06-10T08:24:13;10.10;;;5.63;;
23812;SDS011;12087;45.190;5.688;2023-06-10T08:29:37;9.85;;;5.40;;
23812;SDS011;12087;45.190;5.688;2023-06-10T08:35:00;7.28;;;5.00;;
23812;SDS011;12087;45.190;5.688;2023-06-10T08:40:24;10.13;;;5.50;;
23812;SDS011;12087;45.190;5.688;2023-06-10T08:45:46;8.18;;;5.43;;
23812;SDS011;12087;45.190;5.688;2023-06-10T08:51:11;7.32;;;5.13;;
23812;SDS011;12087;45.190;5.688;2023-06-10T08:56:36;8.55;;;5.30;;
23812;SDS011;12087;45.190;5.688;2023-06-10T09:02:01;7.18;;;5.15;;
23812;SDS011;12087;45.190;5.688;2023-06-10T09:07:25;6.88;;;5.03;;
23812;SDS011;12087;45.190;5.688;2023-06-10T09:12:49;5.43;;;3.63;;
23812;SDS011;12087;45.190;5.688;2023-06-10T09:18:11;4.68;;;3.63;;
23812;SDS011;12087;45.190;5.688;2023-06-10T09:23:34;4.13;;;3.35;;
23812;SDS011;12087;45.190;5.688;2023-06-10T09:29:03;4.03;;;3.30;;
23812;SDS011;12087;45.190;5.688;2023-06-10T09:34:26;5.30;;;3.00;;
23812;SDS011;12087;45.190;5.688;2023-06-10T09:45:34;11.75;;;4.05;;
23812;SDS011;12087;45.190;5.688;2023-06-10T09:50:56;7.05;;;2.95;;
23812;SDS011;12087;45.190;5.688;2023-06-10T09:56:20;7.28;;;3.22;;
23812;SDS011;12087;45.190;5.688;2023-06-10T10:01:46;10.60;;;3.60;;
23812;SDS011;12087;45.190;5.688;2023-06-10T10:07:16;6.93;;;3.65;;
23812;SDS011;12087;45.190;5.688;2023-06-10T10:12:39;12.48;;;3.53;;
23812;SDS011;12087;45.190;5.688;2023-06-10T10:18:05;4.57;;;2.97;;
23812;SDS011;12087;45.190;5.688;2023-06-10T10:23:31;6.05;;;2.65;;
23812;SDS011;12087;45.190;5.688;2023-06-10T10:28:58;6.88;;;2.65;;
23812;SDS011;12087;45.190;5.688;2023-06-10T10:34:40;3.97;;;2.22;;
23812;SDS011;12087;45.190;5.688;2023-06-10T10:40:07;3.35;;;2.13;;
23812;SDS011;12087;45.190;5.688;2023-06-10T10:45:30;3.40;;;1.98;;
23812;SDS011;12087;45.190;5.688;2023-06-10T10:50:57;4.93;;;2.38;;
23812;SDS011;12087;45.190;5.688;2023-06-10T10:56:19;3.03;;;1.92;;
23812;SDS011;12087;45.190;5.688;2023-06-10T11:01:42;2.83;;;2.03;;
23812;SDS011;12087;45.190;5.688;2023-06-10T11:07:08;5.35;;;1.83;;
23812;SDS011;12087;45.190;5.688;2023-06-10T11:18:23;4.00;;;1.90;;
23812;SDS011;12087;45.190;5.688;2023-06-10T11:23:47;1.85;;;1.40;;
23812;SDS011;12087;45.190;5.688;2023-06-10T11:29:10;2.80;;;1.50;;
23812;SDS011;12087;45.190;5.688;2023-06-10T11:34:32;2.97;;;1.60;;
23812;SDS011;12087;45.190;5.688;2023-06-10T11:39:57;3.85;;;1.65;;
23812;SDS011;12087;45.190;5.688;2023-06-10T11:45:20;4.15;;;1.92;;
23812;SDS011;12087;45.190;5.688;2023-06-10T11:50:43;4.80;;;1.98;;
23812;SDS011;12087;45.190;5.688;2023-06-10T11:56:06;5.63;;;1.77;;
23812;SDS011;12087;45.190;5.688;2023-06-10T12:01:28;2.42;;;1.58;;
23812;SDS011;12087;45.190;5.688;2023-06-10T12:06:51;3.22;;;1.88;;
23812;SDS011;12087;45.190;5.688;2023-06-10T12:12:16;5.70;;;1.90;;
23812;SDS011;12087;45.190;5.688;2023-06-10T12:17:39;2.90;;;2.10;;
23812;SDS011;12087;45.190;5.688;2023-06-10T12:23:08;4.50;;;2.00;;
23812;SDS011;12087;45.190;5.688;2023-06-10T12:28:32;5.10;;;2.00;;
23812;SDS011;12087;45.190;5.688;2023-06-10T12:34:07;3.40;;;1.70;;
23812;SDS011;12087;45.190;5.688;2023-06-10T12:39:30;4.75;;;2.50;;
23812;SDS011;12087;45.190;5.688;2023-06-10T12:44:54;2.28;;;1.90;;
23812;SDS011;12087;45.190;5.688;2023-06-10T12:50:21;3.97;;;1.80;;
23812;SDS011;12087;45.190;5.688;2023-06-10T12:55:43;3.53;;;1.55;;
23812;SDS011;12087;45.190;5.688;2023-06-10T13:01:07;5.82;;;1.63;;
23812;SDS011;12087;45.190;5.688;2023-06-10T13:06:30;3.72;;;1.73;;
23812;SDS011;12087;45.190;5.688;2023-06-10T13:11:53;3.83;;;1.50;;
23812;SDS011;12087;45.190;5.688;2023-06-10T13:17:17;6.80;;;1.95;;
23812;SDS011;12087;45.190;5.688;2023-06-10T13:22:40;2.53;;;1.48;;
23812;SDS011;12087;45.190;5.688;2023-06-10T13:28:02;2.78;;;1.50;;
23812;SDS011;12087;45.190;5.688;2023-06-10T13:33:26;5.57;;;1.40;;
23812;SDS011;12087;45.190;5.688;2023-06-10T13:38:48;3.28;;;1.73;;
23812;SDS011;12087;45.190;5.688;2023-06-10T13:44:10;4.80;;;1.27;;
23812;SDS011;12087;45.190;5.688;2023-06-10T13:49:34;4.25;;;1.90;;
23812;SDS011;12087;45.190;5.688;2023-06-10T13:54:56;3.35;;;1.77;;
23812;SDS011;12087;45.190;5.688;2023-06-10T14:00:18;3.25;;;1.60;;
23812;SDS011;12087;45.190;5.688;2023-06-10T14:05:42;4.55;;;1.52;;
23812;SDS011;12087;45.190;5.688;2023-06-10T14:11:06;4.68;;;1.88;;
23812;SDS011;12087;45.190;5.688;2023-06-10T14:16:28;1.83;;;1.67;;
23812;SDS011;12087;45.190;5.688;2023-06-10T14:21:52;5.70;;;2.22;;
23812;SDS011;12087;45.190;5.688;2023-06-10T14:27:15;5.82;;;1.77;;
23812;SDS011;12087;45.190;5.688;2023-06-10T14:32:37;3.95;;;2.17;;
23812;SDS011;12087;45.190;5.688;2023-06-10T14:38:01;3.47;;;1.75;;
23812;SDS011;12087;45.190;5.688;2023-06-10T14:43:23;4.68;;;1.73;;
23812;SDS011;12087;45.190;5.688;2023-06-10T14:48:45;4.80;;;1.60;;
23812;SDS011;12087;45.190;5.688;2023-06-10T14:54:09;5.00;;;1.98;;
23812;SDS011;12087;45.190;5.688;2023-06-10T14:59:31;2.83;;;2.00;;
23812;SDS011;12087;45.190;5.688;2023-06-10T15:04:54;3.25;;;1.65;;
23812;SDS011;12087;45.190;5.688;2023-06-10T15:10:17;2.75;;;1.90;;
23812;SDS011;12087;45.190;5.688;2023-06-10T15:15:41;6.20;;;2.22;;
23812;SDS011;12087;45.190;5.688;2023-06-10T15:21:04;2.28;;;1.70;;
23812;SDS011;12087;45.190;5.688;2023-06-10T15:26:28;2.80;;;1.70;;
23812;SDS011;12087;45.190;5.688;2023-06-10T15:31:50;4.00;;;2.13;;
23812;SDS011;12087;45.190;5.688;2023-06-10T15:37:14;2.80;;;1.80;;
23812;SDS011;12087;45.190;5.688;2023-06-10T15:42:39;4.15;;;2.00;;
23812;SDS011;12087;45.190;5.688;2023-06-10T15:48:04;2.05;;;1.80;;
23812;SDS011;12087;45.190;5.688;2023-06-10T15:53:26;4.32;;;1.85;;
23812;SDS011;12087;45.190;5.688;2023-06-10T15:58:50;3.22;;;1.67;;
23812;SDS011;12087;45.190;5.688;2023-06-10T16:04:12;2.03;;;1.70;;
23812;SDS011;12087;45.190;5.688;2023-06-10T16:09:34;6.55;;;1.65;;
23812;SDS011;12087;45.190;5.688;2023-06-10T16:14:58;10.90;;;1.63;;
23812;SDS011;12087;45.190;5.688;2023-06-10T16:20:21;2.03;;;1.52;;
23812;SDS011;12087;45.190;5.688;2023-06-10T16:25:43;2.97;;;1.55;;
23812;SDS011;12087;45.190;5.688;2023-06-10T16:31:07;3.08;;;1.73;;
23812;SDS011;12087;45.190;5.688;2023-06-10T16:36:29;3.72;;;1.95;;
23812;SDS011;12087;45.190;5.688;2023-06-10T16:41:51;6.47;;;2.03;;
23812;SDS011;12087;45.190;5.688;2023-06-10T16:47:15;1.67;;;1.52;;
23812;SDS011;12087;45.190;5.688;2023-06-10T16:52:37;3.53;;;1.88;;
23812;SDS011;12087;45.190;5.688;2023-06-10T16:58:00;3.80;;;1.40;;
23812;SDS011;12087;45.190;5.688;2023-06-10T17:03:23;2.55;;;1.90;;
23812;SDS011;12087;45.190;5.688;2023-06-10T17:08:47;3.63;;;1.30;;
23812;SDS011;12087;45.190;5.688;2023-06-10T17:14:10;5.03;;;1.38;;
23812;SDS011;12087;45.190;5.688;2023-06-10T17:19:33;1.77;;;1.25;;
23812;SDS011;12087;45.190;5.688;2023-06-10T17:24:55;2.45;;;1.30;;
23812;SDS011;12087;45.190;5.688;2023-06-10T17:30:18;2.50;;;1.45;;
23812;SDS011;12087;45.190;5.688;2023-06-10T17:35:41;1.70;;;1.40;;
23812;SDS011;12087;45.190;5.688;2023-06-10T17:41:04;4.47;;;1.80;;
23812;SDS011;12087;45.190;5.688;2023-06-10T17:46:27;5.03;;;2.38;;
23812;SDS011;12087;45.190;5.688;2023-06-10T17:51:51;4.53;;;2.80;;
23812;SDS011;12087;45.190;5.688;2023-06-10T17:57:13;4.53;;;2.80;;
23812;SDS011;12087;45.190;5.688;2023-06-10T18:02:35;4.65;;;2.45;;
23812;SDS011;12087;45.190;5.688;2023-06-10T18:07:59;2.70;;;2.00;;
23812;SDS011;12087;45.190;5.688;2023-06-10T18:13:21;1.98;;;1.77;;
23812;SDS011;12087;45.190;5.688;2023-06-10T18:18:43;5.05;;;1.92;;
23812;SDS011;12087;45.190;5.688;2023-06-10T18:24:08;3.30;;;2.22;;
23812;SDS011;12087;45.190;5.688;2023-06-10T18:29:30;6.53;;;2.38;;
23812;SDS011;12087;45.190;5.688;2023-06-10T18:34:52;5.70;;;2.30;;
23812;SDS011;12087;45.190;5.688;2023-06-10T18:40:16;3.63;;;2.22;;
23812;SDS011;12087;45.190;5.688;2023-06-10T18:45:38;6.78;;;2.80;;
23812;SDS011;12087;45.190;5.688;2023-06-10T18:51:00;7.43;;;4.40;;
23812;SDS011;12087;45.190;5.688;2023-06-10T18:56:24;6.07;;;2.92;;
23812;SDS011;12087;45.190;5.688;2023-06-10T19:01:47;3.40;;;3.05;;
23812;SDS011;12087;45.190;5.688;2023-06-10T19:07:09;5.45;;;3.10;;
23812;SDS011;12087;45.190;5.688;2023-06-10T19:12:33;4.82;;;2.70;;
23812;SDS011;12087;45.190;5.688;2023-06-10T19:17:55;5.18;;;2.63;;
23812;SDS011;12087;45.190;5.688;2023-06-10T19:23:17;7.03;;;3.70;;
23812;SDS011;12087;45.190;5.688;2023-06-10T19:28:41;11.25;;;4.50;;
23812;SDS011;12087;45.190;5.688;2023-06-10T19:34:04;5.88;;;4.07;;
23812;SDS011;12087;45.190;5.688;2023-06-10T19:39:26;4.68;;;3.00;;
23812;SDS011;12087;45.190;5.688;2023-06-10T19:44:49;7.32;;;2.30;;
23812;SDS011;12087;45.190;5.688;2023-06-10T19:50:11;4.90;;;2.55;;
23812;SDS011;12087;45.190;5.688;2023-06-10T19:55:34;7.25;;;3.33;;
23812;SDS011;12087;45.190;5.688;2023-06-10T20:00:58;7.22;;;3.30;;
23812;SDS011;12087;45.190;5.688;2023-06-10T20:06:20;3.00;;;2.70;;
23812;SDS011;12087;45.190;5.688;2023-06-10T20:11:42;5.63;;;3.33;;
23812;SDS011;12087;45.190;5.688;2023-06-10T20:17:06;5.10;;;3.17;;
23812;SDS011;12087;45.190;5.688;2023-06-10T20:22:28;6.32;;;2.65;;
23812;SDS011;12087;45.190;5.688;2023-06-10T20:27:51;5.38;;;2.80;;
23812;SDS011;12087;45.190;5.688;2023-06-10T20:33:14;5.55;;;3.20;;
23812;SDS011;12087;45.190;5.688;2023-06-10T20:38:37;3.53;;;2.90;;
23812;SDS011;12087;45.190;5.688;2023-06-10T20:43:59;6.88;;;3.38;;
23812;SDS011;12087;45.190;5.688;2023-06-10T20:49:22;3.03;;;2.47;;
23812;SDS011;12087;45.190;5.688;2023-06-10T20:54:45;4.82;;;2.78;;
23812;SDS011;12087;45.190;5.688;2023-06-10T21:00:07;5.30;;;3.40;;
23812;SDS011;12087;45.190;5.688;2023-06-10T21:05:31;4.07;;;2.97;;
23812;SDS011;12087;45.190;5.688;2023-06-10T21:10:54;4.95;;;2.60;;
23812;SDS011;12087;45.190;5.688;2023-06-10T21:16:16;8.63;;;2.97;;
23812;SDS011;12087;45.190;5.688;2023-06-10T21:21:40;3.40;;;2.83;;
23812;SDS011;12087;45.190;5.688;2023-06-10T21:27:02;5.80;;;2.90;;
23812;SDS011;12087;45.190;5.688;2023-06-10T21:32:25;4.22;;;2.60;;
23812;SDS011;12087;45.190;5.688;2023-06-10T21:37:49;6.18;;;3.05;;
23812;SDS011;12087;45.190;5.688;2023-06-10T21:43:12;3.90;;;2.90;;
23812;SDS011;12087;45.190;5.688;2023-06-10T21:53:58;20.00;;;14.25;;
23812;SDS011;12087;45.190;5.688;2023-06-10T21:59:21;7.22;;;5.03;;
23812;SDS011;12087;45.190;5.688;2023-06-10T22:04:43;3.53;;;2.80;;
23812;SDS011;12087;45.190;5.688;2023-06-10T22:10:07;5.22;;;3.00;;
23812;SDS011;12087;45.190;5.688;2023-06-10T22:15:30;4.53;;;2.60;;
23812;SDS011;12087;45.190;5.688;2023-06-10T22:20:52;7.50;;;2.50;;
23812;SDS011;12087;45.190;5.688;2023-06-10T22:26:16;4.38;;;3.08;;
23812;SDS011;12087;45.190;5.688;2023-06-10T22:31:38;2.88;;;2.58;;
23812;SDS011;12087;45.190;5.688;2023-06-10T22:37:00;4.72;;;2.72;;
23812;SDS011;12087;45.190;5.688;2023-06-10T22:42:24;5.30;;;2.90;;
23812;SDS011;12087;45.190;5.688;2023-06-10T22:47:46;3.85;;;2.97;;
23812;SDS011;12087;45.190;5.688;2023-06-10T22:53:09;3.97;;;3.15;;
23812;SDS011;12087;45.190;5.688;2023-06-10T22:58:32;7.30;;;4.43;;
23812;SDS011;12087;45.190;5.688;2023-06-10T23:03:55;5.25;;;3.20;;
23812;SDS011;12087;45.190;5.688;2023-06-10T23:09:17;5.22;;;3.42;;
23812;SDS011;12087;45.190;5.688;2023-06-10T23:14:41;5.35;;;3.03;;
23812;SDS011;12087;45.190;5.688;2023-06-10T23:20:03;5.60;;;3.28;;
23812;SDS011;12087;45.190;5.688;2023-06-10T23:25:27;3.38;;;2.80;;
23812;SDS011;12087;45.190;5.688;2023-06-10T23:30:50;3.17;;;2.63;;
23812;SDS011;12087;45.190;5.688;2023-06-10T23:36:13;4.05;;;2.80;;
23812;SDS011;12087;45.190;5.688;2023-06-10T23:41:36;5.03;;;3.00;;
23812;SDS011;12087;45.190;5.688;2023-06-10T23:47:00;4.38;;;3.22;;
23812;SDS011;12087;45.190;5.688;2023-06-10T23:52:22;3.22;;;2.85;;
23812;SDS011;12087;45.190;5.688;2023-06-10T23:57:44;4.50;;;3.35;;
